Lowman, New York
Current Conditions -  °F | °C
As of 9:53 PM on Saturday 25 Oct 2014 (Local Time) from KELM Reporting Station
Clear Clear  
Wind Chill: 58°   Ceiling: Unl
Heat Index: 58°   Visibility: 10mi
Dew Point: 43°   Wind: 10mph
Humidity: 58%   Direction: 260°W
Pressure: 29.62"   Gusts: NA
Location:  42.03°N, 76.72°W
Report Text: KELM 260153Z AUTO 26009KT 10SM CLR 14/06 A2962 RMK AO2 SLP031 T01440061
Loading
Personal Weather Stations






























Interactive Weather Map
Tropical Storm Tracking
New forecast layout! Learn more

10-Day Weather Forecast

Advertisements
Track Severe Weather on mobile